Time;durP1;ratioP1;P1;durP2;ratioP2;P2;SDS_P1;SDS_P2;PMS_P1;PMS_P2;Temp;Humidity;BMP_temperature;BMP_pressure;BME280_temperature;BME280_humidity;BME280_pressure;Samples;Min_cycle;Max_cycle;Signal;HPM_P1;HPM_P2
2022/12/03 00:00:15;;;;;;;;;;;;;;;21.18;45.57;102125.28;7258017;19;154051;-56
2022/12/03 00:02:42;;;;;;;;;;;;;;;21.23;45.59;102142.16;7259353;19;154974;-56
2022/12/03 00:05:09;;;;;;;;;;;;;;;21.29;45.43;102140.16;7263886;19;154093;-56
2022/12/03 00:07:36;;;;;;;;;;;;;;;21.32;45.35;102135.94;7255156;19;155169;-56
2022/12/03 00:10:04;;;;;;;;;;;;;;;21.35;45.51;102144.63;7256402;19;152827;-55
2022/12/03 00:12:31;;;;;;;;;;;;;;;21.39;44.96;102140.16;7254982;19;152611;-56
2022/12/03 00:14:58;;;;;;;;;;;;;;;21.43;45.11;102140.41;7255705;19;153238;-56
2022/12/03 00:17:25;;;;;;;;;;;;;;;21.46;45.05;102140.69;7257007;19;154092;-56
2022/12/03 00:19:51;;;;;;;;;;;;;;;21.50;44.80;102138.13;7258886;19;154086;-57
2022/12/03 00:22:19;;;;;;;;;;;;;;;21.52;44.93;102138.69;7258747;19;155281;-56
2022/12/03 00:24:45;;;;;;;;;;;;;;;21.53;44.91;102132.78;7255789;19;154627;-56
2022/12/03 00:27:12;;;;;;;;;;;;;;;21.57;44.96;102141.50;7264566;19;153529;-56
2022/12/03 00:29:39;;;;;;;;;;;;;;;21.59;44.92;102142.03;7256242;19;154130;-55
2022/12/03 00:32:06;;;;;;;;;;;;;;;21.61;44.96;102139.78;7256837;19;153633;-55
2022/12/03 00:34:33;;;;;;;;;;;;;;;21.62;44.37;102139.47;7257801;19;153579;-56
2022/12/03 00:37:00;;;;;;;;;;;;;;;21.64;44.51;102134.44;7254951;19;153715;-55
2022/12/03 00:39:27;;;;;;;;;;;;;;;21.65;44.31;102130.50;7259043;19;153851;-55
2022/12/03 00:41:54;;;;;;;;;;;;;;;21.67;44.04;102135.81;7253667;19;155360;-56
2022/12/03 00:44:21;;;;;;;;;;;;;;;21.67;43.84;102125.41;7254525;19;155097;-56
2022/12/03 00:46:48;;;;;;;;;;;;;;;21.69;43.88;102134.41;7263711;19;155368;-56
2022/12/03 00:49:15;;;;;;;;;;;;;;;21.69;44.08;102123.16;7256179;19;154581;-56
2022/12/03 00:51:42;;;;;;;;;;;;;;;21.71;43.58;102132.13;7253539;19;152384;-56
2022/12/03 00:54:08;;;;;;;;;;;;;;;21.72;43.79;102130.16;7255379;19;154213;-56
2022/12/03 00:56:35;;;;;;;;;;;;;;;21.72;43.88;102128.19;7253885;19;153559;-57
2022/12/03 00:59:02;;;;;;;;;;;;;;;21.72;43.84;102121.72;7252931;19;153635;-55
2022/12/03 01:01:29;;;;;;;;;;;;;;;21.72;43.81;102124.53;7256669;19;152924;-56
2022/12/03 01:03:56;;;;;;;;;;;;;;;21.69;43.91;102119.50;7253304;19;154337;-56
2022/12/03 01:06:23;;;;;;;;;;;;;;;21.68;43.98;102127.09;7258210;19;153454;-56
2022/12/03 01:08:50;;;;;;;;;;;;;;;21.65;43.88;102118.41;7263024;19;153481;-56
2022/12/03 01:13:47;;;;;;;;;;;;;;;21.57;44.22;102119.00;7254407;19;153771;-56
2022/12/03 01:16:14;;;;;;;;;;;;;;;21.54;44.27;102113.94;7255547;19;153850;-56
2022/12/03 01:18:41;;;;;;;;;;;;;;;21.48;44.40;102124.38;7255660;19;154046;-56
2022/12/03 01:21:08;;;;;;;;;;;;;;;21.43;44.32;102123.53;7256502;19;154177;-56
2022/12/03 01:23:34;;;;;;;;;;;;;;;21.39;44.84;102123.28;7255443;19;154078;-55
2022/12/03 01:26:01;;;;;;;;;;;;;;;21.34;45.23;102126.09;7254588;19;153768;-55
2022/12/03 01:28:28;;;;;;;;;;;;;;;21.31;44.91;102129.47;7257068;19;154219;-56
2022/12/03 01:33:25;;;;;;;;;;;;;;;21.27;45.30;102126.38;7255260;19;153723;-55
2022/12/03 01:35:52;;;;;;;;;;;;;;;21.23;45.31;102124.44;7254712;19;153699;-56
2022/12/03 01:38:19;;;;;;;;;;;;;;;21.23;45.11;102127.25;7255985;19;153761;-56
2022/12/03 01:40:48;;;;;;;;;;;;;;;21.22;44.95;102134.81;7255515;19;154749;-55
2022/12/03 01:43:15;;;;;;;;;;;;;;;21.18;45.28;102132.88;7253378;19;154845;-56
2022/12/03 01:45:42;;;;;;;;;;;;;;;21.18;45.12;102127.25;7253583;19;154566;-55
2022/12/03 01:48:12;;;;;;;;;;;;;;;21.16;45.12;102135.16;7254738;19;152557;-55
2022/12/03 01:50:39;;;;;;;;;;;;;;;21.14;45.60;102134.56;7254308;19;154067;-56
2022/12/03 01:53:08;;;;;;;;;;;;;;;21.12;45.21;102126.38;7261484;19;152403;-55
2022/12/03 01:55:36;;;;;;;;;;;;;;;21.12;45.61;102134.00;7254645;19;154917;-55
2022/12/03 01:58:03;;;;;;;;;;;;;;;21.11;45.20;102121.91;7254823;19;154155;-55
2022/12/03 02:00:30;;;;;;;;;;;;;;;21.08;45.80;102125.25;7255862;19;154134;-55
2022/12/03 02:02:59;;;;;;;;;;;;;;;21.08;45.54;102127.22;7254266;19;154334;-55
2022/12/03 02:05:27;;;;;;;;;;;;;;;21.06;45.42;102115.44;7254282;19;154048;-55
2022/12/03 02:07:55;;;;;;;;;;;;;;;21.03;45.60;102127.25;7255227;19;152778;-55
2022/12/03 02:10:24;;;;;;;;;;;;;;;21.00;45.39;102125.00;7253166;19;154380;-55
2022/12/03 02:12:54;;;;;;;;;;;;;;;20.98;45.19;102121.66;7254252;19;153320;-55
2022/12/03 02:15:21;;;;;;;;;;;;;;;20.96;45.42;102121.06;7260361;19;154635;-56
2022/12/03 02:17:48;;;;;;;;;;;;;;;20.93;45.74;102111.25;7254287;19;153101;-56
2022/12/03 02:20:15;;;;;;;;;;;;;;;20.91;45.43;102123.88;7249876;19;153929;-55
2022/12/03 02:22:45;;;;;;;;;;;;;;;20.88;45.47;102122.50;7252009;19;156008;-55
2022/12/03 02:25:13;;;;;;;;;;;;;;;20.86;45.28;102119.97;7252546;19;154199;-56
2022/12/03 02:27:40;;;;;;;;;;;;;;;20.84;45.66;102105.38;7254279;19;153678;-55
2022/12/03 02:30:08;;;;;;;;;;;;;;;20.81;45.73;102099.44;7252279;19;154973;-56
2022/12/03 02:32:35;;;;;;;;;;;;;;;20.79;45.60;102101.72;7251908;19;153693;-56
2022/12/03 02:35:02;;;;;;;;;;;;;;;20.77;45.22;102101.16;7250974;19;152578;-55
2022/12/03 02:37:31;;;;;;;;;;;;;;;20.75;45.69;102109.03;7258404;19;153380;-55
2022/12/03 02:40:00;;;;;;;;;;;;;;;20.74;45.21;102110.16;7250993;19;152403;-55
2022/12/03 02:45:00;;;;;;;;;;;;;;;20.68;45.53;102102.84;7250199;19;153306;-56
2022/12/03 02:47:32;;;;;;;;;;;;;;;20.66;45.59;102100.31;7254674;19;153473;-56
2022/12/03 02:50:00;;;;;;;;;;;;;;;20.65;45.41;102097.78;7251968;19;154578;-55
2022/12/03 02:52:28;;;;;;;;;;;;;;;20.64;45.72;102087.69;7255320;19;152926;-56
2022/12/03 02:54:54;;;;;;;;;;;;;;;20.63;45.42;102100.03;7250524;19;153904;-55
2022/12/03 02:57:22;;;;;;;;;;;;;;;20.61;45.59;102100.31;7260456;19;153643;-56
2022/12/03 02:59:50;;;;;;;;;;;;;;;20.59;45.50;102087.66;7249638;19;152725;-55
2022/12/03 03:02:18;;;;;;;;;;;;;;;20.57;45.25;102090.78;7249129;19;153449;-56
2022/12/03 03:04:45;;;;;;;;;;;;;;;20.55;45.16;102086.56;7251417;19;153833;-55
2022/12/03 03:07:12;;;;;;;;;;;;;;;20.54;45.37;102087.66;7253501;19;153714;-55
2022/12/03 03:09:40;;;;;;;;;;;;;;;20.53;45.20;102081.25;7251304;19;154092;-55
2022/12/03 03:12:08;;;;;;;;;;;;;;;20.52;45.25;102085.16;7247526;19;153719;-56
2022/12/03 03:14:35;;;;;;;;;;;;;;;20.53;45.28;102091.63;7252323;19;154912;-55
2022/12/03 03:17:02;;;;;;;;;;;;;;;20.48;45.39;102089.66;7251099;19;154763;-55
2022/12/03 03:19:29;;;;;;;;;;;;;;;20.47;45.45;102079.53;7258183;19;153563;-55
2022/12/03 03:22:04;;;;;;;;;;;;;;;20.45;45.54;102076.16;7248367;19;152864;-56
2022/12/03 03:24:31;;;;;;;;;;;;;;;20.43;45.60;102086.84;7254083;19;152890;-56
2022/12/03 03:26:58;;;;;;;;;;;;;;;20.41;45.42;102081.50;7244191;19;155691;-55
2022/12/03 03:29:24;;;;;;;;;;;;;;;20.39;45.52;102078.16;7251037;19;154381;-55
2022/12/03 03:31:51;;;;;;;;;;;;;;;20.37;45.89;102077.56;7256352;19;152897;-55
2022/12/03 03:34:19;;;;;;;;;;;;;;;20.35;45.82;102074.19;7261386;19;153688;-56
2022/12/03 03:36:45;;;;;;;;;;;;;;;20.34;46.20;102075.34;7258526;19;154286;-56
2022/12/03 03:39:12;;;;;;;;;;;;;;;20.32;46.22;102066.34;7260930;19;154473;-56
2022/12/03 03:41:40;;;;;;;;;;;;;;;20.30;46.17;102065.78;7262920;19;153647;-55
2022/12/03 03:44:07;;;;;;;;;;;;;;;20.29;46.32;102072.50;7256633;19;155111;-56
2022/12/03 03:46:35;;;;;;;;;;;;;;;20.28;46.49;102068.00;7254085;19;154458;-55
2022/12/03 03:49:03;;;;;;;;;;;;;;;20.25;46.55;102064.91;7257538;19;154151;-56
2022/12/03 03:51:31;;;;;;;;;;;;;;;20.23;46.05;102065.19;7258340;19;155180;-56
2022/12/03 03:53:58;;;;;;;;;;;;;;;20.20;46.55;102062.09;7260287;19;154142;-56
2022/12/03 03:56:26;;;;;;;;;;;;;;;20.19;46.52;102061.25;7255220;19;153950;-55
2022/12/03 03:58:54;;;;;;;;;;;;;;;20.18;46.46;102058.72;7257658;19;153300;-55
2022/12/03 04:01:22;;;;;;;;;;;;;;;20.16;46.32;102064.63;7260252;19;154008;-54
2022/12/03 04:03:49;;;;;;;;;;;;;;;20.13;46.11;102070.78;7265457;19;153893;-55
2022/12/03 04:06:16;;;;;;;;;;;;;;;20.13;46.33;102055.91;7255910;19;153238;-55
2022/12/03 04:08:43;;;;;;;;;;;;;;;20.10;46.70;102067.69;7258060;19;153744;-55
2022/12/03 04:13:40;;;;;;;;;;;;;;;20.09;46.57;102055.63;7255064;19;153530;-55
2022/12/03 04:16:07;;;;;;;;;;;;;;;20.07;46.60;102063.50;7256472;19;153274;-57
2022/12/03 04:23:34;;;;;;;;;;;;;;;20.02;46.31;102060.66;7257245;19;154031;-60
2022/12/03 04:35:41;;;;;;;;;;;;;;;19.96;46.64;102048.59;7258500;19;153270;-56
2022/12/03 04:36:17;;;;;;;;;;;;;;;19.91;46.72;102048.56;7255283;19;154954;-56
2022/12/03 04:38:44;;;;;;;;;;;;;;;19.90;46.57;102046.03;7257925;19;153309;-55
2022/12/03 04:41:11;;;;;;;;;;;;;;;19.90;46.69;102049.69;7258457;19;153570;-56
2022/12/03 04:44:31;;;;;;;;;;;;;;;19.90;46.45;102046.03;7252837;19;154976;-56
2022/12/03 04:46:25;;;;;;;;;;;;;;;19.88;46.39;102040.72;7261530;19;152019;-56
2022/12/03 04:48:52;;;;;;;;;;;;;;;19.86;46.63;102042.97;7255573;19;155424;-56
2022/12/03 04:51:18;;;;;;;;;;;;;;;19.84;46.77;102042.41;7256016;19;152481;-55
2022/12/03 04:53:45;;;;;;;;;;;;;;;19.83;46.85;102037.91;7257182;19;153721;-56
2022/12/03 04:56:12;;;;;;;;;;;;;;;19.80;46.78;102041.28;7257491;19;154454;-56
2022/12/03 04:58:39;;;;;;;;;;;;;;;19.79;46.79;102033.97;7257146;19;153157;-56
2022/12/03 05:01:06;;;;;;;;;;;;;;;19.78;46.97;102032.28;7256444;19;154437;-56
2022/12/03 05:03:33;;;;;;;;;;;;;;;19.77;46.61;102038.16;7253117;19;154055;-56
2022/12/03 05:06:00;;;;;;;;;;;;;;;19.73;46.72;102032.28;7254170;19;153511;-56
2022/12/03 05:08:27;;;;;;;;;;;;;;;19.75;46.82;102035.66;7262772;19;153391;-55
2022/12/03 05:10:54;;;;;;;;;;;;;;;19.73;47.13;102029.47;7256458;19;153601;-56
2022/12/03 05:13:20;;;;;;;;;;;;;;;19.72;47.17;102026.94;7256486;19;153676;-56
2022/12/03 05:15:47;;;;;;;;;;;;;;;19.70;47.33;102023.56;7251385;19;153763;-55
2022/12/03 05:18:14;;;;;;;;;;;;;;;19.69;47.08;102033.94;7254952;19;154526;-55
2022/12/03 05:20:41;;;;;;;;;;;;;;;19.68;47.01;102023.00;7256566;19;153712;-55
2022/12/03 05:23:17;;;;;;;;;;;;;;;19.67;47.09;102019.34;7253260;19;156461;-55
2022/12/03 05:25:43;;;;;;;;;;;;;;;19.64;47.05;102019.91;7254620;19;152445;-55
2022/12/03 05:28:10;;;;;;;;;;;;;;;19.63;47.06;102014.56;7252872;19;153371;-55
2022/12/03 05:30:37;;;;;;;;;;;;;;;19.61;47.40;102020.47;7261778;19;155072;-55
2022/12/03 05:33:04;;;;;;;;;;;;;;;19.60;47.70;102013.19;7255114;19;155663;-55
2022/12/03 05:35:32;;;;;;;;;;;;;;;19.61;47.34;102014.03;7255001;19;154357;-55
2022/12/03 05:37:58;;;;;;;;;;;;;;;19.58;47.44;102015.41;7254283;19;152786;-55
2022/12/03 05:40:25;;;;;;;;;;;;;;;19.57;47.69;102027.75;7255265;19;153770;-55
2022/12/03 05:42:52;;;;;;;;;;;;;;;19.56;47.36;102006.44;7253652;19;154732;-56
2022/12/03 05:45:20;;;;;;;;;;;;;;;19.54;47.80;102005.84;7253401;19;153423;-56
2022/12/03 05:47:47;;;;;;;;;;;;;;;19.52;47.77;102008.97;7250209;19;153838;-56
2022/12/03 05:50:14;;;;;;;;;;;;;;;19.51;47.80;102006.41;7254015;19;153615;-55
2022/12/03 05:52:41;;;;;;;;;;;;;;;19.51;47.83;102004.47;7260838;19;153277;-55
2022/12/03 05:55:09;;;;;;;;;;;;;;;19.51;47.81;102000.81;7252232;19;154391;-55
2022/12/03 05:57:36;;;;;;;;;;;;;;;19.49;47.85;102001.09;7252352;19;153412;-55
2022/12/03 06:00:04;;;;;;;;;;;;;;;19.47;47.58;101994.06;7254593;19;153353;-55
2022/12/03 06:02:31;;;;;;;;;;;;;;;19.47;47.60;101988.47;7251691;19;153924;-55
2022/12/03 06:04:58;;;;;;;;;;;;;;;19.44;47.52;101984.25;7255724;19;152714;-55
2022/12/03 06:07:25;;;;;;;;;;;;;;;19.43;47.70;101993.78;7251823;19;153457;-55
2022/12/03 06:09:52;;;;;;;;;;;;;;;19.42;47.61;101994.88;7254992;19;155576;-55
2022/12/03 06:12:19;;;;;;;;;;;;;;;19.42;47.82;101994.03;7250335;19;154789;-55
2022/12/03 06:14:46;;;;;;;;;;;;;;;19.42;47.63;101980.00;7261155;19;153177;-55
2022/12/03 06:17:13;;;;;;;;;;;;;;;19.42;47.70;101985.63;7253761;19;153632;-55
2022/12/03 06:19:40;;;;;;;;;;;;;;;19.39;47.72;101978.63;7254378;19;154912;-56
2022/12/03 06:22:06;;;;;;;;;;;;;;;19.39;47.44;101983.38;7253507;19;154827;-55
2022/12/03 06:24:33;;;;;;;;;;;;;;;19.38;47.94;101970.47;7256018;19;153078;-55
2022/12/03 06:27:00;;;;;;;;;;;;;;;19.36;47.82;101973.53;7249248;19;155281;-56
2022/12/03 06:29:27;;;;;;;;;;;;;;;19.35;47.90;101973.84;7251467;19;156236;-55
2022/12/03 06:31:54;;;;;;;;;;;;;;;19.35;47.88;101977.47;7251451;19;152314;-55
2022/12/03 06:34:21;;;;;;;;;;;;;;;19.34;47.85;101984.22;7251264;19;153642;-55
2022/12/03 06:36:49;;;;;;;;;;;;;;;19.35;47.97;101977.47;7260517;19;156034;-55
2022/12/03 06:39:16;;;;;;;;;;;;;;;19.32;47.64;101974.38;7251988;19;153705;-55
2022/12/03 06:41:44;;;;;;;;;;;;;;;19.32;47.95;101971.56;7249189;19;153718;-55
2022/12/03 06:44:10;;;;;;;;;;;;;;;19.31;47.78;101967.06;7253322;19;154004;-55
2022/12/03 06:46:37;;;;;;;;;;;;;;;19.30;47.57;101968.22;7254031;19;153323;-55
2022/12/03 06:49:04;;;;;;;;;;;;;;;19.27;47.96;101966.78;7252356;19;153894;-55
2022/12/03 06:51:31;;;;;;;;;;;;;;;19.28;48.17;101968.47;7251049;19;153759;-55
2022/12/03 06:53:58;;;;;;;;;;;;;;;19.35;48.09;101962.63;7254760;19;154271;-55
2022/12/03 06:56:25;;;;;;;;;;;;;;;19.43;48.10;101962.97;7258953;19;156321;-55
2022/12/03 06:59:00;;;;;;;;;;;;;;;19.52;47.64;101971.66;7253383;19;154932;-55
2022/12/03 07:01:27;;;;;;;;;;;;;;;19.61;48.01;101963.56;7252248;19;154837;-56
2022/12/03 07:03:54;;;;;;;;;;;;;;;19.65;47.89;101959.06;7252127;19;154226;-55
2022/12/03 07:06:21;;;;;;;;;;;;;;;19.67;48.14;101954.06;7255487;19;154629;-55
2022/12/03 07:08:48;;;;;;;;;;;;;;;19.71;48.44;101955.16;7259117;19;153553;-56
2022/12/03 07:13:45;;;;;;;;;;;;;;;19.79;48.21;101951.81;7258140;19;154720;-55
2022/12/03 07:16:12;;;;;;;;;;;;;;;19.82;48.35;101952.09;7257833;19;154240;-55
2022/12/03 07:18:39;;;;;;;;;;;;;;;19.87;48.37;101960.50;7267194;19;153431;-55
2022/12/03 07:21:05;;;;;;;;;;;;;;;19.89;48.60;101961.09;7259952;19;154448;-55
2022/12/03 07:23:32;;;;;;;;;;;;;;;19.93;48.50;101945.38;7258702;19;155176;-55
2022/12/03 07:25:59;;;;;;;;;;;;;;;19.98;48.71;101941.72;7257667;19;153591;-55
2022/12/03 07:28:26;;;;;;;;;;;;;;;20.02;48.77;101951.25;7255552;19;153780;-56
2022/12/03 07:30:53;;;;;;;;;;;;;;;20.06;48.64;101954.34;7259361;19;153028;-56
2022/12/03 07:33:20;;;;;;;;;;;;;;;20.11;48.95;101946.78;7259906;19;154355;-56
2022/12/03 07:35:47;;;;;;;;;;;;;;;20.16;48.42;101945.94;7259649;19;155201;-56
2022/12/03 07:38:14;;;;;;;;;;;;;;;20.20;48.46;101938.63;7261840;19;153674;-55
2022/12/03 07:40:41;;;;;;;;;;;;;;;20.24;48.65;101939.75;7264887;19;154437;-56
2022/12/03 07:43:08;;;;;;;;;;;;;;;20.29;48.38;101939.75;7259301;19;152392;-55
2022/12/03 07:45:35;;;;;;;;;;;;;;;20.33;48.47;101940.88;7257135;19;155170;-55
2022/12/03 07:48:02;;;;;;;;;;;;;;;20.37;48.09;101937.22;7256683;19;154175;-55
2022/12/03 07:50:28;;;;;;;;;;;;;;;20.42;48.07;101939.19;7258714;19;152865;-56
2022/12/03 07:52:55;;;;;;;;;;;;;;;20.47;48.27;101941.13;7259720;19;153638;-56
2022/12/03 07:55:24;;;;;;;;;;;;;;;20.52;48.24;101941.13;7256809;19;153924;-56
2022/12/03 07:57:51;;;;;;;;;;;;;;;20.56;48.00;101934.66;7258916;19;153219;-56
2022/12/03 08:00:18;;;;;;;;;;;;;;;20.62;48.15;101933.53;7258175;19;155707;-57
2022/12/03 08:02:45;;;;;;;;;;;;;;;20.66;47.98;101937.44;7265512;19;155322;-57
2022/12/03 08:05:12;;;;;;;;;;;;;;;20.70;48.11;101932.94;7254991;19;155975;-56
2022/12/03 08:07:40;;;;;;;;;;;;;;;20.75;47.93;101929.28;7253917;19;153936;-56
2022/12/03 08:10:07;;;;;;;;;;;;;;;20.79;47.58;101925.59;7257521;19;153082;-56
2022/12/03 08:15:09;;;;;;;;;;;;;;;20.89;47.88;101921.91;7254784;19;154625;-56
2022/12/03 08:17:39;;;;;;;;;;;;;;;20.94;47.70;101918.25;7255745;19;154570;-56
2022/12/03 08:20:09;;;;;;;;;;;;;;;20.96;47.24;101916.81;7256482;19;154355;-55
2022/12/03 08:22:36;;;;;;;;;;;;;;;21.02;47.21;101912.88;7257444;19;153960;-56
2022/12/03 08:25:05;;;;;;;;;;;;;;;21.06;46.95;101913.13;7266177;19;153061;-56
2022/12/03 08:27:32;;;;;;;;;;;;;;;21.08;46.78;101908.88;7254128;19;154859;-56
2022/12/03 08:30:02;;;;;;;;;;;;;;;21.12;46.73;101897.94;7256610;19;152745;-56
2022/12/03 08:32:30;;;;;;;;;;;;;;;21.15;46.71;101906.66;7255503;19;152944;-56
2022/12/03 08:34:57;;;;;;;;;;;;;;;21.18;46.75;101906.06;7257030;19;154197;-56
2022/12/03 08:37:24;;;;;;;;;;;;;;;21.21;46.58;101902.66;7258871;19;153544;-56
2022/12/03 08:39:53;;;;;;;;;;;;;;;21.24;46.34;101898.44;7258943;19;153354;-56
2022/12/03 08:44:53;;;;;;;;;;;;;;;21.28;46.32;101897.56;7256778;19;153200;-56
2022/12/03 08:47:22;;;;;;;;;;;;;;;21.31;46.04;101898.94;7262956;19;153449;-56
2022/12/03 08:49:53;;;;;;;;;;;;;;;21.33;46.02;101893.88;7254439;19;152231;-56
2022/12/03 08:52:20;;;;;;;;;;;;;;;21.35;45.85;101888.00;7256699;19;155252;-57
2022/12/03 08:54:51;;;;;;;;;;;;;;;21.35;45.62;101888.81;7257509;19;153727;-56
2022/12/03 08:57:19;;;;;;;;;;;;;;;21.39;45.44;101886.28;7254682;19;153532;-57
2022/12/03 08:59:46;;;;;;;;;;;;;;;21.39;45.65;101887.13;7254234;19;154433;-56
2022/12/03 09:02:20;;;;;;;;;;;;;;;21.40;45.28;101890.75;7256281;19;153968;-56
2022/12/03 09:04:47;;;;;;;;;;;;;;;21.41;45.12;101881.19;7255976;19;153320;-56
2022/12/03 09:07:14;;;;;;;;;;;;;;;21.43;45.26;101876.13;7261871;19;154989;-56
2022/12/03 09:09:41;;;;;;;;;;;;;;;21.44;45.01;101877.81;7257567;19;153735;-56
2022/12/03 09:12:08;;;;;;;;;;;;;;;21.44;44.86;101878.63;7252288;19;154133;-56
2022/12/03 09:14:35;;;;;;;;;;;;;;;21.46;44.81;101883.97;7254508;19;153272;-56
2022/12/03 09:17:02;;;;;;;;;;;;;;;21.46;44.94;101884.81;7255147;19;153320;-55
2022/12/03 09:19:30;;;;;;;;;;;;;;;21.46;44.99;101887.63;7255748;19;154655;-56
2022/12/03 09:21:57;;;;;;;;;;;;;;;21.45;45.00;101883.13;7251460;19;153717;-56
2022/12/03 09:24:24;;;;;;;;;;;;;;;21.44;45.18;101881.44;7257464;19;152120;-56
2022/12/03 09:26:51;;;;;;;;;;;;;;;21.42;45.32;101878.09;7255490;19;152939;-56
2022/12/03 09:29:18;;;;;;;;;;;;;;;21.21;42.72;101882.16;7258589;19;153417;-56
2022/12/03 09:31:45;;;;;;;;;;;;;;;21.07;38.86;101883.91;7254955;19;153339;-56
2022/12/03 09:34:12;;;;;;;;;;;;;;;21.10;40.73;101872.91;7253843;19;154287;-56
2022/12/03 09:36:39;;;;;;;;;;;;;;;21.18;41.76;101874.31;7255709;19;152292;-56
2022/12/03 09:39:06;;;;;;;;;;;;;;;21.16;41.46;101871.81;7254710;19;154294;-56
2022/12/03 09:41:33;;;;;;;;;;;;;;;21.18;41.57;101883.56;7253413;19;153052;-56
2022/12/03 09:44:01;;;;;;;;;;;;;;;21.16;41.45;101868.16;7252410;19;152998;-56
2022/12/03 09:46:31;;;;;;;;;;;;;;;21.15;42.00;101869.28;7253640;19;153016;-55
2022/12/03 09:48:59;;;;;;;;;;;;;;;21.14;42.05;101876.00;7252064;19;156253;-56
2022/12/03 09:51:29;;;;;;;;;;;;;;;21.13;41.75;101866.75;7261088;19;152409;-56
2022/12/03 09:53:58;;;;;;;;;;;;;;;21.11;42.16;101868.97;7253800;19;153453;-55
2022/12/03 09:56:25;;;;;;;;;;;;;;;21.10;42.15;101866.47;7251506;19;152445;-56
2022/12/03 09:58:52;;;;;;;;;;;;;;;21.05;42.42;101863.66;7200192;19;157065;-56
2022/12/03 10:01:19;;;;;;;;;;;;;;;21.01;42.94;101860.59;7238729;19;154430;-57
2022/12/03 10:03:49;;;;;;;;;;;;;;;20.85;39.42;101859.84;7251106;19;153518;-56
2022/12/03 10:06:17;;;;;;;;;;;;;;;20.73;40.63;101852.88;7250303;19;153507;-57
2022/12/03 10:08:47;;;;;;;;;;;;;;;20.67;41.85;101857.66;7249512;19;154357;-56
2022/12/03 10:11:15;;;;;;;;;;;;;;;20.68;41.71;101844.47;7250583;19;154322;-57
2022/12/03 10:13:42;;;;;;;;;;;;;;;20.73;41.27;101845.28;7254722;19;153628;-57
2022/12/03 10:16:11;;;;;;;;;;;;;;;20.76;41.43;101846.69;7250050;19;153549;-56
2022/12/03 10:18:40;;;;;;;;;;;;;;;20.80;41.39;101840.19;7251858;19;155077;-57
2022/12/03 10:21:15;;;;;;;;;;;;;;;20.84;41.91;101838.50;7250726;19;154307;-57
2022/12/03 10:23:42;;;;;;;;;;;;;;;20.85;41.50;101830.91;7248758;19;153466;-57
2022/12/03 10:26:09;;;;;;;;;;;;;;;20.85;42.00;101834.56;7253888;19;154561;-57
2022/12/03 10:28:38;;;;;;;;;;;;;;;20.87;42.16;101828.66;7246749;19;154146;-57
2022/12/03 10:31:06;;;;;;;;;;;;;;;20.91;42.13;101828.91;7249943;19;153360;-57
2022/12/03 10:33:35;;;;;;;;;;;;;;;20.92;42.04;101824.97;7252132;19;154190;-57
2022/12/03 10:36:04;;;;;;;;;;;;;;;20.92;42.10;101820.19;7260043;19;154979;-57
2022/12/03 10:38:31;;;;;;;;;;;;;;;20.93;41.92;101827.50;7252490;19;154028;-57
2022/12/03 10:40:58;;;;;;;;;;;;;;;20.93;42.06;101819.09;7246826;19;153059;-56
2022/12/03 10:43:25;;;;;;;;;;;;;;;20.95;41.98;101801.91;7252554;19;152835;-57
2022/12/03 10:45:55;;;;;;;;;;;;;;;20.94;42.44;101803.06;7252170;19;154224;-57
2022/12/03 10:48:29;;;;;;;;;;;;;;;20.96;42.50;101806.41;7250906;19;155219;-56
2022/12/03 10:50:56;;;;;;;;;;;;;;;20.97;42.58;101802.47;7252843;19;153763;-56
2022/12/03 10:53:27;;;;;;;;;;;;;;;21.00;42.71;101799.06;7251950;19;153589;-56
2022/12/03 10:58:26;;;;;;;;;;;;;;;21.03;42.64;101802.13;7259181;19;154369;-57
2022/12/03 11:00:55;;;;;;;;;;;;;;;21.06;42.38;101793.16;7239825;19;153004;-57
2022/12/03 11:03:24;;;;;;;;;;;;;;;21.09;42.62;101797.31;7246362;19;153312;-57
2022/12/03 11:05:52;;;;;;;;;;;;;;;21.11;42.50;101783.84;7244064;19;154922;-57
2022/12/03 11:08:22;;;;;;;;;;;;;;;21.13;42.49;101788.06;7246040;19;155167;-57
2022/12/03 11:10:51;;;;;;;;;;;;;;;21.15;43.03;101773.72;7243770;19;154117;-58
2022/12/03 11:13:22;;;;;;;;;;;;;;;21.18;42.84;101768.34;7248377;19;153619;-57
2022/12/03 11:15:48;;;;;;;;;;;;;;;21.23;43.17;101770.28;7246030;19;153510;-57
2022/12/03 11:18:18;;;;;;;;;;;;;;;21.27;42.82;101765.75;7255644;19;153946;-56
2022/12/03 11:20:46;;;;;;;;;;;;;;;21.30;42.88;101749.13;7246997;19;154279;-56
2022/12/03 11:23:13;;;;;;;;;;;;;;;21.33;43.13;101749.69;7248192;19;153528;-57
2022/12/03 11:25:42;;;;;;;;;;;;;;;21.33;43.39;101750.53;7248474;19;154476;-56
2022/12/03 11:28:12;;;;;;;;;;;;;;;21.38;42.76;101753.28;7247309;19;156211;-56
2022/12/03 11:30:42;;;;;;;;;;;;;;;21.40;43.07;101751.00;7244674;19;153596;-55
2022/12/03 11:33:20;;;;;;;;;;;;;;;21.45;43.05;101739.72;7250554;19;153820;-56
2022/12/03 11:35:50;;;;;;;;;;;;;;;21.51;42.56;101735.75;7245799;19;153904;-56
2022/12/03 11:38:37;;;;;;;;;;;;;;;21.52;42.56;101734.63;7247442;19;155264;-56
2022/12/03 11:41:07;;;;;;;;;;;;;;;21.53;42.37;101732.63;7251697;19;154072;-56
2022/12/03 11:43:37;;;;;;;;;;;;;;;21.58;42.66;101732.56;7245064;19;152407;-56
2022/12/03 11:46:08;;;;;;;;;;;;;;;21.56;42.70;101718.81;7246360;19;154658;-56
2022/12/03 11:48:42;;;;;;;;;;;;;;;21.59;42.48;101712.59;7244641;19;154632;-58
2022/12/03 11:51:12;;;;;;;;;;;;;;;21.61;42.31;101709.50;7247748;19;153532;-56
2022/12/03 11:53:40;;;;;;;;;;;;;;;21.63;42.36;101708.03;7255124;19;154371;-55
2022/12/03 11:56:08;;;;;;;;;;;;;;;21.64;42.76;101698.47;7256501;19;153259;-56
2022/12/03 11:58:37;;;;;;;;;;;;;;;21.66;42.60;101690.59;7256131;19;153676;-56
2022/12/03 12:01:05;;;;;;;;;;;;;;;21.69;42.51;101690.00;7255533;19;154006;-56
2022/12/03 12:03:33;;;;;;;;;;;;;;;21.70;42.28;101686.03;7244946;19;152866;-56
2022/12/03 12:06:04;;;;;;;;;;;;;;;21.73;42.04;101688.25;7256397;19;154163;-55
2022/12/03 12:08:32;;;;;;;;;;;;;;;21.75;42.46;101696.41;7255302;19;153896;-57
2022/12/03 12:10:59;;;;;;;;;;;;;;;21.76;42.27;101684.00;7253449;19;152242;-56
2022/12/03 12:13:27;;;;;;;;;;;;;;;21.78;41.89;101683.69;7253107;19;153241;-55
2022/12/03 12:15:54;;;;;;;;;;;;;;;21.80;41.84;101681.44;7255509;19;155291;-56
2022/12/03 12:18:24;;;;;;;;;;;;;;;21.82;41.91;101679.16;7257308;19;154310;-55
2022/12/03 12:20:52;;;;;;;;;;;;;;;21.82;41.71;101670.72;7254539;19;154240;-55
2022/12/03 12:23:20;;;;;;;;;;;;;;;21.82;42.03;101674.38;7255571;19;153963;-56
2022/12/03 12:25:47;;;;;;;;;;;;;;;21.83;41.70;101667.59;7266253;19;153445;-56
2022/12/03 12:28:19;;;;;;;;;;;;;;;21.82;41.79;101665.09;7255899;19;154889;-56
2022/12/03 12:30:46;;;;;;;;;;;;;;;21.79;41.71;101662.88;7253492;19;154659;-55
2022/12/03 12:33:18;;;;;;;;;;;;;;;21.74;41.68;101661.81;7256562;19;153555;-55
2022/12/03 12:35:45;;;;;;;;;;;;;;;21.71;42.33;101661.56;7254754;19;154129;-56
2022/12/03 12:38:14;;;;;;;;;;;;;;;21.67;42.27;101658.50;7257645;19;153995;-56
2022/12/03 12:40:43;;;;;;;;;;;;;;;21.65;42.25;101654.31;7253374;19;153085;-56
2022/12/03 12:43:11;;;;;;;;;;;;;;;21.62;41.91;101658.56;7253831;19;153612;-55
2022/12/03 12:45:46;;;;;;;;;;;;;;;21.62;42.06;101663.38;7252958;19;152631;-55
2022/12/03 12:48:13;;;;;;;;;;;;;;;21.64;42.38;101647.00;7261439;19;152976;-56
2022/12/03 12:50:42;;;;;;;;;;;;;;;21.64;42.30;101649.81;7253160;19;154484;-56
2022/12/03 12:53:10;;;;;;;;;;;;;;;21.71;41.83;101642.69;7254481;19;156046;-56
2022/12/03 12:55:38;;;;;;;;;;;;;;;21.75;42.45;101640.16;7251510;19;154510;-53
2022/12/03 12:58:10;;;;;;;;;;;;;;;21.78;42.60;101636.72;7249171;19;154854;-60
2022/12/03 13:00:38;;;;;;;;;;;;;;;21.82;42.54;101637.78;7249327;19;153829;-56
2022/12/03 13:03:06;;;;;;;;;;;;;;;21.85;41.98;101630.75;7245149;19;154655;-57